sensor_id;sensor_type;location;lat;lon;timestamp;P1;durP1;ratioP1;P2;durP2;ratioP2
52530;SDS011;38441;52.894;6.040;2023-03-14T00:01:09;13.48;;;3.92;;
52530;SDS011;38441;52.894;6.040;2023-03-14T00:03:35;20.55;;;4.45;;
52530;SDS011;38441;52.894;6.040;2023-03-14T00:06:02;18.55;;;3.72;;
52530;SDS011;38441;52.894;6.040;2023-03-14T00:08:29;23.25;;;5.22;;
52530;SDS011;38441;52.894;6.040;2023-03-14T00:10:55;17.60;;;5.40;;
52530;SDS011;38441;52.894;6.040;2023-03-14T00:13:23;19.02;;;3.80;;
52530;SDS011;38441;52.894;6.040;2023-03-14T00:15:49;21.75;;;4.32;;
52530;SDS011;38441;52.894;6.040;2023-03-14T00:18:15;25.73;;;5.68;;
52530;SDS011;38441;52.894;6.040;2023-03-14T00:20:41;25.13;;;5.50;;
52530;SDS011;38441;52.894;6.040;2023-03-14T00:23:07;17.63;;;4.47;;
52530;SDS011;38441;52.894;6.040;2023-03-14T00:25:33;17.42;;;3.88;;
52530;SDS011;38441;52.894;6.040;2023-03-14T00:27:59;13.77;;;3.45;;
52530;SDS011;38441;52.894;6.040;2023-03-14T00:30:25;12.48;;;3.17;;
52530;SDS011;38441;52.894;6.040;2023-03-14T00:32:51;17.38;;;3.28;;
52530;SDS011;38441;52.894;6.040;2023-03-14T00:35:17;19.10;;;3.58;;
52530;SDS011;38441;52.894;6.040;2023-03-14T00:37:43;18.10;;;3.08;;
52530;SDS011;38441;52.894;6.040;2023-03-14T00:40:09;17.40;;;3.30;;
52530;SDS011;38441;52.894;6.040;2023-03-14T00:42:35;19.20;;;2.90;;
52530;SDS011;38441;52.894;6.040;2023-03-14T00:45:01;13.05;;;2.35;;
52530;SDS011;38441;52.894;6.040;2023-03-14T00:47:28;13.30;;;3.22;;
52530;SDS011;38441;52.894;6.040;2023-03-14T00:49:54;20.10;;;3.67;;
52530;SDS011;38441;52.894;6.040;2023-03-14T00:52:20;17.73;;;3.00;;
52530;SDS011;38441;52.894;6.040;2023-03-14T00:54:46;19.30;;;3.20;;
52530;SDS011;38441;52.894;6.040;2023-03-14T00:57:12;21.70;;;4.28;;
52530;SDS011;38441;52.894;6.040;2023-03-14T00:59:38;16.63;;;3.20;;
52530;SDS011;38441;52.894;6.040;2023-03-14T01:02:04;18.77;;;3.60;;
52530;SDS011;38441;52.894;6.040;2023-03-14T01:04:30;12.75;;;3.30;;
52530;SDS011;38441;52.894;6.040;2023-03-14T01:06:57;13.48;;;2.83;;
52530;SDS011;38441;52.894;6.040;2023-03-14T01:09:22;14.60;;;2.85;;
52530;SDS011;38441;52.894;6.040;2023-03-14T01:11:48;13.32;;;3.42;;
52530;SDS011;38441;52.894;6.040;2023-03-14T01:14:15;19.17;;;3.35;;
52530;SDS011;38441;52.894;6.040;2023-03-14T01:16:41;15.00;;;3.22;;
52530;SDS011;38441;52.894;6.040;2023-03-14T01:19:06;13.77;;;3.22;;
52530;SDS011;38441;52.894;6.040;2023-03-14T01:21:33;19.10;;;2.85;;
52530;SDS011;38441;52.894;6.040;2023-03-14T01:24:01;10.55;;;2.95;;
52530;SDS011;38441;52.894;6.040;2023-03-14T01:26:29;10.35;;;2.47;;
52530;SDS011;38441;52.894;6.040;2023-03-14T01:28:56;11.00;;;2.30;;
52530;SDS011;38441;52.894;6.040;2023-03-14T01:31:23;11.77;;;2.53;;
52530;SDS011;38441;52.894;6.040;2023-03-14T01:33:49;12.88;;;2.58;;
52530;SDS011;38441;52.894;6.040;2023-03-14T01:36:15;12.32;;;2.30;;
52530;SDS011;38441;52.894;6.040;2023-03-14T01:38:41;10.98;;;2.58;;
52530;SDS011;38441;52.894;6.040;2023-03-14T01:41:09;14.75;;;2.80;;
52530;SDS011;38441;52.894;6.040;2023-03-14T01:51:29;11.52;;;1.98;;
52530;SDS011;38441;52.894;6.040;2023-03-14T01:54:08;12.35;;;3.08;;
52530;SDS011;38441;52.894;6.040;2023-03-14T01:56:38;12.02;;;2.15;;
52530;SDS011;38441;52.894;6.040;2023-03-14T01:59:08;11.50;;;2.00;;
52530;SDS011;38441;52.894;6.040;2023-03-14T02:01:35;11.25;;;2.38;;
52530;SDS011;38441;52.894;6.040;2023-03-14T02:04:01;9.07;;;2.20;;
52530;SDS011;38441;52.894;6.040;2023-03-14T02:09:17;9.25;;;3.03;;
52530;SDS011;38441;52.894;6.040;2023-03-14T02:11:44;11.02;;;2.10;;
52530;SDS011;38441;52.894;6.040;2023-03-14T02:14:16;11.65;;;2.30;;
52530;SDS011;38441;52.894;6.040;2023-03-14T02:16:50;7.15;;;1.83;;
52530;SDS011;38441;52.894;6.040;2023-03-14T02:19:17;13.75;;;2.42;;
52530;SDS011;38441;52.894;6.040;2023-03-14T02:29:30;8.35;;;2.08;;
52530;SDS011;38441;52.894;6.040;2023-03-14T02:31:58;9.00;;;2.13;;
52530;SDS011;38441;52.894;6.040;2023-03-14T02:34:24;10.10;;;2.10;;
52530;SDS011;38441;52.894;6.040;2023-03-14T02:36:51;8.98;;;1.75;;
52530;SDS011;38441;52.894;6.040;2023-03-14T02:39:19;9.07;;;2.08;;
52530;SDS011;38441;52.894;6.040;2023-03-14T02:41:51;9.82;;;1.70;;
52530;SDS011;38441;52.894;6.040;2023-03-14T02:44:17;11.50;;;2.05;;
52530;SDS011;38441;52.894;6.040;2023-03-14T02:46:43;7.50;;;1.90;;
52530;SDS011;38441;52.894;6.040;2023-03-14T02:49:13;8.52;;;1.75;;
52530;SDS011;38441;52.894;6.040;2023-03-14T02:51:39;7.30;;;1.95;;
52530;SDS011;38441;52.894;6.040;2023-03-14T02:54:07;9.40;;;1.95;;
52530;SDS011;38441;52.894;6.040;2023-03-14T02:56:33;12.77;;;2.60;;
52530;SDS011;38441;52.894;6.040;2023-03-14T02:59:02;8.32;;;2.22;;
52530;SDS011;38441;52.894;6.040;2023-03-14T03:01:28;11.65;;;2.50;;
52530;SDS011;38441;52.894;6.040;2023-03-14T03:03:54;11.43;;;2.30;;
52530;SDS011;38441;52.894;6.040;2023-03-14T03:06:20;14.30;;;2.95;;
52530;SDS011;38441;52.894;6.040;2023-03-14T03:08:46;12.18;;;2.40;;
52530;SDS011;38441;52.894;6.040;2023-03-14T03:11:12;11.77;;;3.00;;
52530;SDS011;38441;52.894;6.040;2023-03-14T03:13:38;10.52;;;2.05;;
52530;SDS011;38441;52.894;6.040;2023-03-14T03:16:04;9.68;;;2.50;;
52530;SDS011;38441;52.894;6.040;2023-03-14T03:18:30;12.10;;;2.42;;
52530;SDS011;38441;52.894;6.040;2023-03-14T03:20:59;10.25;;;2.20;;
52530;SDS011;38441;52.894;6.040;2023-03-14T03:23:26;14.02;;;2.75;;
52530;SDS011;38441;52.894;6.040;2023-03-14T03:25:52;15.35;;;2.50;;
52530;SDS011;38441;52.894;6.040;2023-03-14T03:28:18;11.77;;;2.45;;
52530;SDS011;38441;52.894;6.040;2023-03-14T03:30:44;10.02;;;2.45;;
52530;SDS011;38441;52.894;6.040;2023-03-14T03:33:11;16.20;;;3.05;;
52530;SDS011;38441;52.894;6.040;2023-03-14T03:35:47;10.63;;;2.53;;
52530;SDS011;38441;52.894;6.040;2023-03-14T03:38:14;16.20;;;3.17;;
52530;SDS011;38441;52.894;6.040;2023-03-14T03:40:41;15.90;;;3.15;;
52530;SDS011;38441;52.894;6.040;2023-03-14T03:43:07;17.77;;;3.30;;
52530;SDS011;38441;52.894;6.040;2023-03-14T03:45:34;20.75;;;3.40;;
52530;SDS011;38441;52.894;6.040;2023-03-14T03:48:00;13.05;;;3.33;;
52530;SDS011;38441;52.894;6.040;2023-03-14T03:50:26;14.25;;;3.33;;
52530;SDS011;38441;52.894;6.040;2023-03-14T03:52:52;16.48;;;3.60;;
52530;SDS011;38441;52.894;6.040;2023-03-14T03:55:18;12.77;;;3.90;;
52530;SDS011;38441;52.894;6.040;2023-03-14T03:57:44;15.40;;;3.78;;
52530;SDS011;38441;52.894;6.040;2023-03-14T04:00:10;12.98;;;4.05;;
52530;SDS011;38441;52.894;6.040;2023-03-14T04:02:37;9.95;;;3.88;;
52530;SDS011;38441;52.894;6.040;2023-03-14T04:05:03;14.13;;;4.70;;
52530;SDS011;38441;52.894;6.040;2023-03-14T04:07:31;15.00;;;5.15;;
52530;SDS011;38441;52.894;6.040;2023-03-14T04:09:57;13.35;;;4.28;;
52530;SDS011;38441;52.894;6.040;2023-03-14T04:12:23;14.82;;;4.72;;
52530;SDS011;38441;52.894;6.040;2023-03-14T04:14:49;14.07;;;4.20;;
52530;SDS011;38441;52.894;6.040;2023-03-14T04:17:15;13.10;;;5.13;;
52530;SDS011;38441;52.894;6.040;2023-03-14T04:19:41;11.90;;;4.63;;
52530;SDS011;38441;52.894;6.040;2023-03-14T04:22:08;16.02;;;5.57;;
52530;SDS011;38441;52.894;6.040;2023-03-14T04:24:34;9.05;;;4.45;;
52530;SDS011;38441;52.894;6.040;2023-03-14T04:27:00;15.60;;;4.60;;
52530;SDS011;38441;52.894;6.040;2023-03-14T04:29:26;11.50;;;3.85;;
52530;SDS011;38441;52.894;6.040;2023-03-14T04:31:52;14.13;;;4.45;;
52530;SDS011;38441;52.894;6.040;2023-03-14T04:34:18;11.02;;;3.60;;
52530;SDS011;38441;52.894;6.040;2023-03-14T04:36:44;11.60;;;3.67;;
52530;SDS011;38441;52.894;6.040;2023-03-14T04:39:10;13.05;;;3.47;;
52530;SDS011;38441;52.894;6.040;2023-03-14T04:41:36;10.27;;;3.47;;
52530;SDS011;38441;52.894;6.040;2023-03-14T04:44:02;11.52;;;3.90;;
52530;SDS011;38441;52.894;6.040;2023-03-14T04:46:28;10.15;;;3.58;;
52530;SDS011;38441;52.894;6.040;2023-03-14T04:48:54;12.55;;;4.07;;
52530;SDS011;38441;52.894;6.040;2023-03-14T04:51:21;9.00;;;3.58;;
52530;SDS011;38441;52.894;6.040;2023-03-14T04:53:48;10.20;;;3.55;;
52530;SDS011;38441;52.894;6.040;2023-03-14T04:56:14;9.82;;;3.70;;
52530;SDS011;38441;52.894;6.040;2023-03-14T04:58:40;8.65;;;3.78;;
52530;SDS011;38441;52.894;6.040;2023-03-14T05:01:06;14.52;;;4.18;;
52530;SDS011;38441;52.894;6.040;2023-03-14T05:03:32;14.18;;;3.95;;
52530;SDS011;38441;52.894;6.040;2023-03-14T05:06:01;14.25;;;4.32;;
52530;SDS011;38441;52.894;6.040;2023-03-14T05:08:27;13.43;;;3.58;;
52530;SDS011;38441;52.894;6.040;2023-03-14T05:10:53;9.57;;;3.40;;
52530;SDS011;38441;52.894;6.040;2023-03-14T05:13:22;9.93;;;4.20;;
52530;SDS011;38441;52.894;6.040;2023-03-14T05:15:48;13.18;;;4.55;;
52530;SDS011;38441;52.894;6.040;2023-03-14T05:18:15;11.25;;;3.60;;
52530;SDS011;38441;52.894;6.040;2023-03-14T05:20:41;10.00;;;4.10;;
52530;SDS011;38441;52.894;6.040;2023-03-14T05:23:10;10.35;;;4.35;;
52530;SDS011;38441;52.894;6.040;2023-03-14T05:25:36;11.90;;;4.63;;
52530;SDS011;38441;52.894;6.040;2023-03-14T05:28:02;10.27;;;4.20;;
52530;SDS011;38441;52.894;6.040;2023-03-14T05:30:28;11.63;;;4.45;;
52530;SDS011;38441;52.894;6.040;2023-03-14T05:32:55;12.02;;;5.25;;
52530;SDS011;38441;52.894;6.040;2023-03-14T05:35:22;10.20;;;4.18;;
52530;SDS011;38441;52.894;6.040;2023-03-14T05:37:48;11.38;;;4.70;;
52530;SDS011;38441;52.894;6.040;2023-03-14T05:40:14;12.48;;;4.15;;
52530;SDS011;38441;52.894;6.040;2023-03-14T05:42:40;12.98;;;4.63;;
52530;SDS011;38441;52.894;6.040;2023-03-14T05:45:06;9.82;;;4.55;;
52530;SDS011;38441;52.894;6.040;2023-03-14T05:47:32;13.45;;;5.00;;
52530;SDS011;38441;52.894;6.040;2023-03-14T05:49:58;12.85;;;4.30;;
52530;SDS011;38441;52.894;6.040;2023-03-14T05:52:25;11.55;;;4.22;;
52530;SDS011;38441;52.894;6.040;2023-03-14T05:54:51;8.98;;;4.22;;
52530;SDS011;38441;52.894;6.040;2023-03-14T05:57:17;12.45;;;4.15;;
52530;SDS011;38441;52.894;6.040;2023-03-14T05:59:43;12.20;;;4.80;;
52530;SDS011;38441;52.894;6.040;2023-03-14T06:02:09;8.98;;;4.57;;
52530;SDS011;38441;52.894;6.040;2023-03-14T06:04:35;13.90;;;4.88;;
52530;SDS011;38441;52.894;6.040;2023-03-14T06:07:01;9.93;;;4.95;;
52530;SDS011;38441;52.894;6.040;2023-03-14T06:09:27;13.68;;;4.75;;
52530;SDS011;38441;52.894;6.040;2023-03-14T06:11:53;11.68;;;4.65;;
52530;SDS011;38441;52.894;6.040;2023-03-14T06:14:19;9.95;;;4.63;;
52530;SDS011;38441;52.894;6.040;2023-03-14T06:16:45;9.95;;;5.03;;
52530;SDS011;38441;52.894;6.040;2023-03-14T06:19:14;9.30;;;4.85;;
52530;SDS011;38441;52.894;6.040;2023-03-14T06:21:40;6.63;;;3.65;;
52530;SDS011;38441;52.894;6.040;2023-03-14T06:24:06;9.07;;;4.38;;
52530;SDS011;38441;52.894;6.040;2023-03-14T06:26:32;8.23;;;4.57;;
52530;SDS011;38441;52.894;6.040;2023-03-14T06:28:58;10.40;;;4.63;;
52530;SDS011;38441;52.894;6.040;2023-03-14T06:31:28;8.10;;;3.25;;
52530;SDS011;38441;52.894;6.040;2023-03-14T06:33:54;7.43;;;3.08;;
52530;SDS011;38441;52.894;6.040;2023-03-14T06:36:20;10.10;;;3.20;;
52530;SDS011;38441;52.894;6.040;2023-03-14T06:38:46;6.63;;;1.95;;
52530;SDS011;38441;52.894;6.040;2023-03-14T06:41:12;7.25;;;2.65;;
52530;SDS011;38441;52.894;6.040;2023-03-14T06:43:38;4.72;;;2.05;;
52530;SDS011;38441;52.894;6.040;2023-03-14T06:46:04;4.30;;;1.40;;
52530;SDS011;38441;52.894;6.040;2023-03-14T06:48:31;4.60;;;1.27;;
52530;SDS011;38441;52.894;6.040;2023-03-14T06:50:57;6.70;;;1.40;;
52530;SDS011;38441;52.894;6.040;2023-03-14T06:53:23;5.95;;;1.25;;
52530;SDS011;38441;52.894;6.040;2023-03-14T06:55:49;6.28;;;1.10;;
52530;SDS011;38441;52.894;6.040;2023-03-14T06:58:15;8.48;;;1.63;;
52530;SDS011;38441;52.894;6.040;2023-03-14T07:00:41;5.80;;;1.20;;
52530;SDS011;38441;52.894;6.040;2023-03-14T07:03:07;7.93;;;1.10;;
52530;SDS011;38441;52.894;6.040;2023-03-14T07:05:33;6.45;;;1.05;;
52530;SDS011;38441;52.894;6.040;2023-03-14T07:07:59;8.27;;;1.40;;
52530;SDS011;38441;52.894;6.040;2023-03-14T07:10:25;4.45;;;0.95;;
52530;SDS011;38441;52.894;6.040;2023-03-14T07:12:51;6.35;;;1.25;;
52530;SDS011;38441;52.894;6.040;2023-03-14T07:15:18;8.35;;;0.95;;
52530;SDS011;38441;52.894;6.040;2023-03-14T07:17:45;7.20;;;0.60;;
52530;SDS011;38441;52.894;6.040;2023-03-14T07:20:13;5.10;;;1.02;;
52530;SDS011;38441;52.894;6.040;2023-03-14T07:22:39;7.30;;;1.38;;
52530;SDS011;38441;52.894;6.040;2023-03-14T07:25:05;5.47;;;0.75;;
52530;SDS011;38441;52.894;6.040;2023-03-14T07:27:31;4.72;;;0.85;;
52530;SDS011;38441;52.894;6.040;2023-03-14T07:29:57;2.97;;;0.60;;
52530;SDS011;38441;52.894;6.040;2023-03-14T07:32:23;4.32;;;0.65;;
52530;SDS011;38441;52.894;6.040;2023-03-14T07:34:49;3.08;;;0.80;;
52530;SDS011;38441;52.894;6.040;2023-03-14T07:37:15;1.55;;;0.43;;
52530;SDS011;38441;52.894;6.040;2023-03-14T07:39:41;3.58;;;0.50;;
52530;SDS011;38441;52.894;6.040;2023-03-14T07:42:07;1.92;;;0.40;;
52530;SDS011;38441;52.894;6.040;2023-03-14T07:44:33;3.70;;;0.85;;
52530;SDS011;38441;52.894;6.040;2023-03-14T07:46:59;6.03;;;0.80;;
52530;SDS011;38441;52.894;6.040;2023-03-14T07:49:25;3.67;;;0.40;;
52530;SDS011;38441;52.894;6.040;2023-03-14T07:51:52;2.95;;;0.40;;
52530;SDS011;38441;52.894;6.040;2023-03-14T07:54:18;4.38;;;0.80;;
52530;SDS011;38441;52.894;6.040;2023-03-14T07:56:44;5.22;;;0.63;;
52530;SDS011;38441;52.894;6.040;2023-03-14T07:59:10;4.85;;;0.73;;
52530;SDS011;38441;52.894;6.040;2023-03-14T08:01:37;3.00;;;0.50;;
52530;SDS011;38441;52.894;6.040;2023-03-14T08:04:03;4.13;;;1.02;;
52530;SDS011;38441;52.894;6.040;2023-03-14T08:06:29;2.88;;;0.50;;
52530;SDS011;38441;52.894;6.040;2023-03-14T08:08:55;3.47;;;0.45;;
52530;SDS011;38441;52.894;6.040;2023-03-14T08:11:21;4.38;;;0.60;;
52530;SDS011;38441;52.894;6.040;2023-03-14T08:13:47;8.15;;;1.42;;
52530;SDS011;38441;52.894;6.040;2023-03-14T08:16:16;3.30;;;0.40;;
52530;SDS011;38441;52.894;6.040;2023-03-14T08:18:42;1.90;;;0.35;;
52530;SDS011;38441;52.894;6.040;2023-03-14T08:21:08;2.83;;;0.57;;
52530;SDS011;38441;52.894;6.040;2023-03-14T08:23:34;2.67;;;0.43;;
52530;SDS011;38441;52.894;6.040;2023-03-14T08:26:00;5.75;;;0.82;;
52530;SDS011;38441;52.894;6.040;2023-03-14T08:28:27;6.22;;;0.80;;
52530;SDS011;38441;52.894;6.040;2023-03-14T08:30:58;1.42;;;0.35;;
52530;SDS011;38441;52.894;6.040;2023-03-14T08:33:24;1.70;;;0.70;;
52530;SDS011;38441;52.894;6.040;2023-03-14T08:35:57;5.28;;;0.80;;
52530;SDS011;38441;52.894;6.040;2023-03-14T08:38:24;3.78;;;0.60;;
52530;SDS011;38441;52.894;6.040;2023-03-14T08:40:54;6.47;;;0.77;;
52530;SDS011;38441;52.894;6.040;2023-03-14T08:43:21;9.07;;;1.30;;
52530;SDS011;38441;52.894;6.040;2023-03-14T08:45:47;11.95;;;1.10;;
52530;SDS011;38441;52.894;6.040;2023-03-14T08:48:13;6.70;;;1.48;;
52530;SDS011;38441;52.894;6.040;2023-03-14T08:50:39;4.63;;;0.70;;
52530;SDS011;38441;52.894;6.040;2023-03-14T08:53:05;8.48;;;1.52;;
52530;SDS011;38441;52.894;6.040;2023-03-14T08:55:31;13.00;;;1.50;;
52530;SDS011;38441;52.894;6.040;2023-03-14T08:57:57;8.35;;;1.30;;
52530;SDS011;38441;52.894;6.040;2023-03-14T09:00:23;8.68;;;1.73;;
52530;SDS011;38441;52.894;6.040;2023-03-14T09:02:49;9.23;;;1.35;;
52530;SDS011;38441;52.894;6.040;2023-03-14T09:05:15;6.82;;;2.20;;
52530;SDS011;38441;52.894;6.040;2023-03-14T09:07:41;7.68;;;1.40;;
52530;SDS011;38441;52.894;6.040;2023-03-14T09:10:08;12.45;;;2.03;;
52530;SDS011;38441;52.894;6.040;2023-03-14T09:12:34;9.23;;;2.10;;
52530;SDS011;38441;52.894;6.040;2023-03-14T09:15:00;11.18;;;1.90;;
52530;SDS011;38441;52.894;6.040;2023-03-14T09:17:27;14.18;;;1.92;;
52530;SDS011;38441;52.894;6.040;2023-03-14T09:19:53;10.18;;;1.52;;
52530;SDS011;38441;52.894;6.040;2023-03-14T09:22:19;16.52;;;1.90;;
52530;SDS011;38441;52.894;6.040;2023-03-14T09:24:45;7.22;;;1.48;;
52530;SDS011;38441;52.894;6.040;2023-03-14T09:27:11;10.82;;;1.85;;
52530;SDS011;38441;52.894;6.040;2023-03-14T09:29:37;8.10;;;1.40;;
52530;SDS011;38441;52.894;6.040;2023-03-14T09:32:03;9.88;;;1.92;;
52530;SDS011;38441;52.894;6.040;2023-03-14T09:34:29;16.92;;;2.15;;
52530;SDS011;38441;52.894;6.040;2023-03-14T09:36:55;14.27;;;2.10;;
52530;SDS011;38441;52.894;6.040;2023-03-14T09:39:22;12.43;;;2.30;;
52530;SDS011;38441;52.894;6.040;2023-03-14T09:41:48;21.75;;;3.08;;
52530;SDS011;38441;52.894;6.040;2023-03-14T09:44:20;18.35;;;2.55;;
52530;SDS011;38441;52.894;6.040;2023-03-14T09:46:59;14.15;;;2.05;;
52530;SDS011;38441;52.894;6.040;2023-03-14T09:49:35;15.13;;;2.47;;
52530;SDS011;38441;52.894;6.040;2023-03-14T09:55:38;11.82;;;2.13;;
52530;SDS011;38441;52.894;6.040;2023-03-14T09:57:46;16.25;;;2.30;;
52530;SDS011;38441;52.894;6.040;2023-03-14T10:00:15;17.05;;;2.58;;
52530;SDS011;38441;52.894;6.040;2023-03-14T10:02:50;14.60;;;2.60;;
52530;SDS011;38441;52.894;6.040;2023-03-14T10:05:21;14.75;;;2.65;;
52530;SDS011;38441;52.894;6.040;2023-03-14T10:07:48;13.93;;;2.80;;
52530;SDS011;38441;52.894;6.040;2023-03-14T10:10:18;16.60;;;1.77;;
52530;SDS011;38441;52.894;6.040;2023-03-14T10:12:54;11.95;;;2.03;;
52530;SDS011;38441;52.894;6.040;2023-03-14T10:15:25;16.88;;;3.33;;
52530;SDS011;38441;52.894;6.040;2023-03-14T10:17:54;9.50;;;1.40;;
52530;SDS011;38441;52.894;6.040;2023-03-14T10:20:28;17.58;;;2.22;;
52530;SDS011;38441;52.894;6.040;2023-03-14T10:23:03;17.42;;;2.30;;
52530;SDS011;38441;52.894;6.040;2023-03-14T10:25:45;14.85;;;1.77;;
52530;SDS011;38441;52.894;6.040;2023-03-14T10:28:29;19.42;;;2.65;;
52530;SDS011;38441;52.894;6.040;2023-03-14T10:30:58;9.32;;;1.90;;
52530;SDS011;38441;52.894;6.040;2023-03-14T10:33:28;12.63;;;3.00;;
52530;SDS011;38441;52.894;6.040;2023-03-14T10:36:03;13.00;;;2.50;;
52530;SDS011;38441;52.894;6.040;2023-03-14T10:38:39;12.50;;;1.90;;
52530;SDS011;38441;52.894;6.040;2023-03-14T10:41:16;11.60;;;2.42;;
52530;SDS011;38441;52.894;6.040;2023-03-14T10:43:50;10.85;;;1.95;;
52530;SDS011;38441;52.894;6.040;2023-03-14T10:46:18;8.80;;;1.80;;
52530;SDS011;38441;52.894;6.040;2023-03-14T10:48:44;21.58;;;1.70;;
52530;SDS011;38441;52.894;6.040;2023-03-14T10:53:45;12.45;;;1.67;;
52530;SDS011;38441;52.894;6.040;2023-03-14T10:56:13;13.27;;;1.83;;
52530;SDS011;38441;52.894;6.040;2023-03-14T10:58:42;9.82;;;1.45;;
52530;SDS011;38441;52.894;6.040;2023-03-14T11:01:14;10.23;;;1.40;;
52530;SDS011;38441;52.894;6.040;2023-03-14T11:03:57;5.78;;;0.90;;
52530;SDS011;38441;52.894;6.040;2023-03-14T11:06:39;8.63;;;1.40;;
52530;SDS011;38441;52.894;6.040;2023-03-14T11:09:18;7.70;;;0.90;;
52530;SDS011;38441;52.894;6.040;2023-03-14T11:14:52;10.27;;;2.08;;
52530;SDS011;38441;52.894;6.040;2023-03-14T11:20:55;12.18;;;1.27;;
52530;SDS011;38441;52.894;6.040;2023-03-14T11:26:40;6.90;;;1.17;;
52530;SDS011;38441;52.894;6.040;2023-03-14T11:31:59;10.25;;;1.17;;
52530;SDS011;38441;52.894;6.040;2023-03-14T11:34:36;7.30;;;1.42;;
52530;SDS011;38441;52.894;6.040;2023-03-14T11:37:25;7.85;;;1.15;;
52530;SDS011;38441;52.894;6.040;2023-03-14T11:42:38;10.32;;;1.40;;
52530;SDS011;38441;52.894;6.040;2023-03-14T11:45:22;4.65;;;0.70;;
52530;SDS011;38441;52.894;6.040;2023-03-14T11:48:07;8.02;;;0.80;;
52530;SDS011;38441;52.894;6.040;2023-03-14T11:50:52;3.42;;;0.70;;
52530;SDS011;38441;52.894;6.040;2023-03-14T11:53:25;5.95;;;0.82;;
52530;SDS011;38441;52.894;6.040;2023-03-14T11:56:27;5.82;;;0.88;;
52530;SDS011;38441;52.894;6.040;2023-03-14T11:59:19;8.15;;;0.95;;
52530;SDS011;38441;52.894;6.040;2023-03-14T12:04:19;5.78;;;0.90;;
52530;SDS011;38441;52.894;6.040;2023-03-14T12:06:49;3.20;;;0.68;;
52530;SDS011;38441;52.894;6.040;2023-03-14T12:09:19;6.13;;;1.23;;
52530;SDS011;38441;52.894;6.040;2023-03-14T12:11:50;3.78;;;0.82;;
52530;SDS011;38441;52.894;6.040;2023-03-14T12:22:49;7.53;;;1.02;;
52530;SDS011;38441;52.894;6.040;2023-03-14T12:25:25;7.75;;;1.13;;
52530;SDS011;38441;52.894;6.040;2023-03-14T12:30:28;5.32;;;0.80;;
52530;SDS011;38441;52.894;6.040;2023-03-14T12:43:50;7.88;;;0.98;;
52530;SDS011;38441;52.894;6.040;2023-03-14T12:46:26;4.53;;;0.55;;
52530;SDS011;38441;52.894;6.040;2023-03-14T12:49:10;7.40;;;1.00;;
52530;SDS011;38441;52.894;6.040;2023-03-14T12:51:42;5.15;;;1.00;;
52530;SDS011;38441;52.894;6.040;2023-03-14T12:54:28;4.45;;;0.73;;
52530;SDS011;38441;52.894;6.040;2023-03-14T12:59:59;6.78;;;1.30;;
52530;SDS011;38441;52.894;6.040;2023-03-14T13:02:29;8.32;;;1.27;;
52530;SDS011;38441;52.894;6.040;2023-03-14T13:05:14;6.25;;;0.52;;
52530;SDS011;38441;52.894;6.040;2023-03-14T13:10:17;4.03;;;0.35;;
52530;SDS011;38441;52.894;6.040;2023-03-14T13:12:54;3.83;;;0.90;;
52530;SDS011;38441;52.894;6.040;2023-03-14T13:15:35;4.90;;;0.50;;
52530;SDS011;38441;52.894;6.040;2023-03-14T13:18:11;5.15;;;0.90;;
52530;SDS011;38441;52.894;6.040;2023-03-14T13:20:47;7.57;;;0.95;;
52530;SDS011;38441;52.894;6.040;2023-03-14T13:23:24;6.07;;;0.95;;
52530;SDS011;38441;52.894;6.040;2023-03-14T13:25:54;7.45;;;1.15;;
52530;SDS011;38441;52.894;6.040;2023-03-14T13:28:21;5.78;;;0.77;;
52530;SDS011;38441;52.894;6.040;2023-03-14T13:30:48;5.85;;;1.02;;
52530;SDS011;38441;52.894;6.040;2023-03-14T13:33:20;5.10;;;0.90;;
52530;SDS011;38441;52.894;6.040;2023-03-14T13:35:49;6.82;;;0.95;;
52530;SDS011;38441;52.894;6.040;2023-03-14T13:38:21;6.82;;;0.70;;
52530;SDS011;38441;52.894;6.040;2023-03-14T13:40:49;6.63;;;1.05;;
52530;SDS011;38441;52.894;6.040;2023-03-14T13:43:20;9.10;;;1.33;;
52530;SDS011;38441;52.894;6.040;2023-03-14T13:45:51;4.65;;;0.80;;
52530;SDS011;38441;52.894;6.040;2023-03-14T13:48:21;10.48;;;1.17;;
52530;SDS011;38441;52.894;6.040;2023-03-14T13:51:06;7.72;;;0.80;;
52530;SDS011;38441;52.894;6.040;2023-03-14T13:53:54;3.67;;;0.73;;
52530;SDS011;38441;52.894;6.040;2023-03-14T13:56:21;7.40;;;1.05;;
52530;SDS011;38441;52.894;6.040;2023-03-14T13:58:49;4.63;;;0.80;;
52530;SDS011;38441;52.894;6.040;2023-03-14T14:01:16;7.68;;;0.80;;
52530;SDS011;38441;52.894;6.040;2023-03-14T14:03:42;5.50;;;1.40;;
52530;SDS011;38441;52.894;6.040;2023-03-14T14:06:23;6.18;;;0.68;;
52530;SDS011;38441;52.894;6.040;2023-03-14T14:08:50;3.72;;;0.70;;
52530;SDS011;38441;52.894;6.040;2023-03-14T14:11:37;4.82;;;0.55;;
52530;SDS011;38441;52.894;6.040;2023-03-14T14:14:10;4.68;;;0.80;;
52530;SDS011;38441;52.894;6.040;2023-03-14T14:16:41;6.57;;;1.17;;
52530;SDS011;38441;52.894;6.040;2023-03-14T14:19:08;5.05;;;1.13;;
52530;SDS011;38441;52.894;6.040;2023-03-14T14:21:34;4.13;;;0.90;;
52530;SDS011;38441;52.894;6.040;2023-03-14T14:24:00;5.45;;;0.77;;
52530;SDS011;38441;52.894;6.040;2023-03-14T14:26:27;3.15;;;0.50;;
52530;SDS011;38441;52.894;6.040;2023-03-14T14:29:00;4.85;;;0.90;;
52530;SDS011;38441;52.894;6.040;2023-03-14T14:31:28;5.15;;;0.70;;
52530;SDS011;38441;52.894;6.040;2023-03-14T14:33:58;6.75;;;0.80;;
52530;SDS011;38441;52.894;6.040;2023-03-14T14:36:39;5.78;;;0.93;;
52530;SDS011;38441;52.894;6.040;2023-03-14T14:39:11;6.75;;;0.60;;
52530;SDS011;38441;52.894;6.040;2023-03-14T14:41:49;3.25;;;0.63;;
52530;SDS011;38441;52.894;6.040;2023-03-14T14:44:17;6.45;;;0.70;;
52530;SDS011;38441;52.894;6.040;2023-03-14T14:46:54;5.45;;;0.75;;
52530;SDS011;38441;52.894;6.040;2023-03-14T14:49:20;7.95;;;0.95;;
52530;SDS011;38441;52.894;6.040;2023-03-14T14:51:50;7.65;;;0.85;;
52530;SDS011;38441;52.894;6.040;2023-03-14T14:54:20;6.15;;;1.35;;
52530;SDS011;38441;52.894;6.040;2023-03-14T14:57:02;4.20;;;1.30;;
52530;SDS011;38441;52.894;6.040;2023-03-14T14:59:30;4.43;;;0.93;;
52530;SDS011;38441;52.894;6.040;2023-03-14T15:01:57;6.03;;;1.20;;
52530;SDS011;38441;52.894;6.040;2023-03-14T15:04:24;6.40;;;0.68;;
52530;SDS011;38441;52.894;6.040;2023-03-14T15:06:51;5.32;;;1.00;;
52530;SDS011;38441;52.894;6.040;2023-03-14T15:09:18;9.63;;;1.25;;
52530;SDS011;38441;52.894;6.040;2023-03-14T15:11:45;7.70;;;1.10;;
52530;SDS011;38441;52.894;6.040;2023-03-14T15:14:11;10.35;;;1.42;;
52530;SDS011;38441;52.894;6.040;2023-03-14T15:16:38;8.30;;;1.08;;
52530;SDS011;38441;52.894;6.040;2023-03-14T15:19:12;8.85;;;0.88;;
52530;SDS011;38441;52.894;6.040;2023-03-14T15:21:45;6.10;;;1.08;;
52530;SDS011;38441;52.894;6.040;2023-03-14T15:24:11;9.98;;;1.10;;
52530;SDS011;38441;52.894;6.040;2023-03-14T15:26:37;8.98;;;1.30;;
52530;SDS011;38441;52.894;6.040;2023-03-14T15:29:03;7.88;;;1.52;;
52530;SDS011;38441;52.894;6.040;2023-03-14T15:31:30;10.65;;;1.10;;
52530;SDS011;38441;52.894;6.040;2023-03-14T15:33:56;9.40;;;1.20;;
52530;SDS011;38441;52.894;6.040;2023-03-14T15:36:24;6.93;;;1.23;;
52530;SDS011;38441;52.894;6.040;2023-03-14T15:38:52;4.45;;;0.77;;
52530;SDS011;38441;52.894;6.040;2023-03-14T15:41:19;7.05;;;1.05;;
52530;SDS011;38441;52.894;6.040;2023-03-14T15:51:32;5.10;;;0.90;;
52530;SDS011;38441;52.894;6.040;2023-03-14T15:53:58;5.22;;;0.82;;
52530;SDS011;38441;52.894;6.040;2023-03-14T15:56:24;6.20;;;0.70;;
52530;SDS011;38441;52.894;6.040;2023-03-14T15:58:52;6.93;;;1.40;;
52530;SDS011;38441;52.894;6.040;2023-03-14T16:01:19;6.63;;;2.28;;
52530;SDS011;38441;52.894;6.040;2023-03-14T16:03:45;12.43;;;2.50;;
52530;SDS011;38441;52.894;6.040;2023-03-14T16:06:11;8.00;;;2.25;;